sensor_id;sensor_type;location;lat;lon;timestamp;P1;durP1;ratioP1;P2;durP2;ratioP2
5937;SDS011;2994;51.220;4.412;2023-01-30T00:01:39;21.83;;;15.40;;
5937;SDS011;2994;51.220;4.412;2023-01-30T00:04:05;19.37;;;14.83;;
5937;SDS011;2994;51.220;4.412;2023-01-30T00:06:30;20.77;;;14.43;;
5937;SDS011;2994;51.220;4.412;2023-01-30T00:08:56;20.07;;;15.03;;
5937;SDS011;2994;51.220;4.412;2023-01-30T00:11:22;23.13;;;15.47;;
5937;SDS011;2994;51.220;4.412;2023-01-30T00:13:48;24.37;;;15.90;;
5937;SDS011;2994;51.220;4.412;2023-01-30T00:16:14;19.50;;;13.67;;
5937;SDS011;2994;51.220;4.412;2023-01-30T00:18:40;21.60;;;14.10;;
5937;SDS011;2994;51.220;4.412;2023-01-30T00:21:07;18.93;;;14.63;;
5937;SDS011;2994;51.220;4.412;2023-01-30T00:23:35;22.13;;;13.30;;
5937;SDS011;2994;51.220;4.412;2023-01-30T00:26:01;18.83;;;13.63;;
5937;SDS011;2994;51.220;4.412;2023-01-30T00:28:28;18.50;;;13.10;;
5937;SDS011;2994;51.220;4.412;2023-01-30T00:30:53;23.37;;;15.10;;
5937;SDS011;2994;51.220;4.412;2023-01-30T00:33:20;20.40;;;13.10;;
5937;SDS011;2994;51.220;4.412;2023-01-30T00:35:49;26.20;;;13.80;;
5937;SDS011;2994;51.220;4.412;2023-01-30T00:38:18;18.40;;;13.90;;
5937;SDS011;2994;51.220;4.412;2023-01-30T00:40:45;19.10;;;14.27;;
5937;SDS011;2994;51.220;4.412;2023-01-30T00:43:11;23.60;;;13.37;;
5937;SDS011;2994;51.220;4.412;2023-01-30T00:45:57;24.20;;;14.40;;
5937;SDS011;2994;51.220;4.412;2023-01-30T00:48:42;15.23;;;12.87;;
5937;SDS011;2994;51.220;4.412;2023-01-30T00:51:08;22.50;;;13.60;;
5937;SDS011;2994;51.220;4.412;2023-01-30T00:53:33;21.23;;;14.07;;
5937;SDS011;2994;51.220;4.412;2023-01-30T00:55:59;21.87;;;15.03;;
5937;SDS011;2994;51.220;4.412;2023-01-30T00:58:24;18.33;;;13.20;;
5937;SDS011;2994;51.220;4.412;2023-01-30T01:00:50;16.90;;;12.97;;
5937;SDS011;2994;51.220;4.412;2023-01-30T01:03:16;24.20;;;16.17;;
5937;SDS011;2994;51.220;4.412;2023-01-30T01:05:42;17.90;;;14.60;;
5937;SDS011;2994;51.220;4.412;2023-01-30T01:08:08;21.03;;;13.63;;
5937;SDS011;2994;51.220;4.412;2023-01-30T01:10:34;20.67;;;13.23;;
5937;SDS011;2994;51.220;4.412;2023-01-30T01:12:59;22.43;;;14.50;;
5937;SDS011;2994;51.220;4.412;2023-01-30T01:15:25;20.77;;;13.70;;
5937;SDS011;2994;51.220;4.412;2023-01-30T01:17:51;21.67;;;14.20;;
5937;SDS011;2994;51.220;4.412;2023-01-30T01:20:17;20.60;;;15.40;;
5937;SDS011;2994;51.220;4.412;2023-01-30T01:22:43;20.37;;;15.70;;
5937;SDS011;2994;51.220;4.412;2023-01-30T01:25:09;21.03;;;13.63;;
5937;SDS011;2994;51.220;4.412;2023-01-30T01:27:36;20.03;;;14.77;;
5937;SDS011;2994;51.220;4.412;2023-01-30T01:30:02;19.90;;;14.10;;
5937;SDS011;2994;51.220;4.412;2023-01-30T01:32:28;19.07;;;13.80;;
5937;SDS011;2994;51.220;4.412;2023-01-30T01:34:53;23.70;;;15.40;;
5937;SDS011;2994;51.220;4.412;2023-01-30T01:37:19;19.60;;;13.83;;
5937;SDS011;2994;51.220;4.412;2023-01-30T01:39:44;21.70;;;12.73;;
5937;SDS011;2994;51.220;4.412;2023-01-30T01:42:30;19.50;;;13.37;;
5937;SDS011;2994;51.220;4.412;2023-01-30T01:45:03;20.07;;;13.43;;
5937;SDS011;2994;51.220;4.412;2023-01-30T01:50:14;15.87;;;13.50;;
5937;SDS011;2994;51.220;4.412;2023-01-30T01:52:43;19.77;;;12.97;;
5937;SDS011;2994;51.220;4.412;2023-01-30T01:55:10;18.10;;;12.50;;
5937;SDS011;2994;51.220;4.412;2023-01-30T01:57:46;15.63;;;12.00;;
5937;SDS011;2994;51.220;4.412;2023-01-30T02:00:20;19.10;;;12.77;;
5937;SDS011;2994;51.220;4.412;2023-01-30T02:02:51;20.20;;;12.77;;
5937;SDS011;2994;51.220;4.412;2023-01-30T02:05:24;19.30;;;13.53;;
5937;SDS011;2994;51.220;4.412;2023-01-30T02:10:36;18.20;;;12.60;;
5937;SDS011;2994;51.220;4.412;2023-01-30T02:13:13;15.10;;;12.17;;
5937;SDS011;2994;51.220;4.412;2023-01-30T02:15:39;19.30;;;14.30;;
5937;SDS011;2994;51.220;4.412;2023-01-30T02:18:04;17.83;;;10.40;;
5937;SDS011;2994;51.220;4.412;2023-01-30T02:23:25;18.80;;;11.60;;
5937;SDS011;2994;51.220;4.412;2023-01-30T02:31:56;14.63;;;11.20;;
5937;SDS011;2994;51.220;4.412;2023-01-30T02:48:02;15.00;;;10.23;;
5937;SDS011;2994;51.220;4.412;2023-01-30T02:50:37;16.13;;;10.70;;
5937;SDS011;2994;51.220;4.412;2023-01-30T02:53:13;13.00;;;10.33;;
5937;SDS011;2994;51.220;4.412;2023-01-30T02:55:39;15.37;;;11.43;;
5937;SDS011;2994;51.220;4.412;2023-01-30T02:58:06;17.33;;;10.83;;
5937;SDS011;2994;51.220;4.412;2023-01-30T03:04:12;13.27;;;9.83;;
5937;SDS011;2994;51.220;4.412;2023-01-30T03:09:29;15.63;;;10.03;;
5937;SDS011;2994;51.220;4.412;2023-01-30T03:12:08;12.83;;;9.30;;
5937;SDS011;2994;51.220;4.412;2023-01-30T03:14:48;12.00;;;8.40;;
5937;SDS011;2994;51.220;4.412;2023-01-30T03:17:20;11.53;;;8.07;;
5937;SDS011;2994;51.220;4.412;2023-01-30T03:19:49;16.20;;;9.10;;
5937;SDS011;2994;51.220;4.412;2023-01-30T03:22:15;11.43;;;8.60;;
5937;SDS011;2994;51.220;4.412;2023-01-30T03:24:41;13.73;;;9.17;;
5937;SDS011;2994;51.220;4.412;2023-01-30T03:27:10;12.33;;;8.60;;
5937;SDS011;2994;51.220;4.412;2023-01-30T03:29:37;14.10;;;8.80;;
5937;SDS011;2994;51.220;4.412;2023-01-30T03:32:03;11.17;;;8.70;;
5937;SDS011;2994;51.220;4.412;2023-01-30T03:34:29;10.80;;;8.00;;
5937;SDS011;2994;51.220;4.412;2023-01-30T03:36:55;10.37;;;8.00;;
5937;SDS011;2994;51.220;4.412;2023-01-30T03:39:22;10.60;;;7.70;;
5937;SDS011;2994;51.220;4.412;2023-01-30T03:41:48;12.57;;;7.67;;
5937;SDS011;2994;51.220;4.412;2023-01-30T03:44:14;9.40;;;7.40;;
5937;SDS011;2994;51.220;4.412;2023-01-30T03:46:39;10.20;;;7.83;;
5937;SDS011;2994;51.220;4.412;2023-01-30T03:49:04;7.53;;;6.77;;
5937;SDS011;2994;51.220;4.412;2023-01-30T03:51:30;10.60;;;7.57;;
5937;SDS011;2994;51.220;4.412;2023-01-30T03:53:55;10.47;;;7.80;;
5937;SDS011;2994;51.220;4.412;2023-01-30T03:56:21;11.83;;;6.67;;
5937;SDS011;2994;51.220;4.412;2023-01-30T03:58:46;10.57;;;7.77;;
5937;SDS011;2994;51.220;4.412;2023-01-30T04:01:12;11.10;;;7.50;;
5937;SDS011;2994;51.220;4.412;2023-01-30T04:03:37;9.47;;;7.00;;
5937;SDS011;2994;51.220;4.412;2023-01-30T04:06:03;9.17;;;7.00;;
5937;SDS011;2994;51.220;4.412;2023-01-30T04:08:28;8.20;;;7.13;;
5937;SDS011;2994;51.220;4.412;2023-01-30T04:10:53;8.67;;;7.73;;
5937;SDS011;2994;51.220;4.412;2023-01-30T04:13:19;9.20;;;6.67;;
5937;SDS011;2994;51.220;4.412;2023-01-30T04:15:44;12.53;;;8.17;;
5937;SDS011;2994;51.220;4.412;2023-01-30T04:18:10;12.50;;;7.87;;
5937;SDS011;2994;51.220;4.412;2023-01-30T04:20:35;10.37;;;8.33;;
5937;SDS011;2994;51.220;4.412;2023-01-30T04:23:01;8.97;;;7.03;;
5937;SDS011;2994;51.220;4.412;2023-01-30T04:25:26;13.43;;;8.43;;
5937;SDS011;2994;51.220;4.412;2023-01-30T04:27:52;11.37;;;8.83;;
5937;SDS011;2994;51.220;4.412;2023-01-30T04:30:17;10.30;;;8.20;;
5937;SDS011;2994;51.220;4.412;2023-01-30T04:32:43;11.83;;;9.50;;
5937;SDS011;2994;51.220;4.412;2023-01-30T04:35:08;11.83;;;8.53;;
5937;SDS011;2994;51.220;4.412;2023-01-30T04:37:34;11.43;;;8.20;;
5937;SDS011;2994;51.220;4.412;2023-01-30T04:39:59;9.23;;;8.13;;
5937;SDS011;2994;51.220;4.412;2023-01-30T04:42:25;10.10;;;7.50;;
5937;SDS011;2994;51.220;4.412;2023-01-30T04:44:50;9.97;;;7.93;;
5937;SDS011;2994;51.220;4.412;2023-01-30T04:47:16;10.33;;;7.33;;
5937;SDS011;2994;51.220;4.412;2023-01-30T04:49:41;9.90;;;7.43;;
5937;SDS011;2994;51.220;4.412;2023-01-30T04:52:07;9.47;;;8.30;;
5937;SDS011;2994;51.220;4.412;2023-01-30T04:54:32;10.10;;;7.97;;
5937;SDS011;2994;51.220;4.412;2023-01-30T04:56:58;9.73;;;6.90;;
5937;SDS011;2994;51.220;4.412;2023-01-30T04:59:24;10.13;;;7.80;;
5937;SDS011;2994;51.220;4.412;2023-01-30T05:01:49;9.13;;;7.43;;
5937;SDS011;2994;51.220;4.412;2023-01-30T05:04:15;13.20;;;7.93;;
5937;SDS011;2994;51.220;4.412;2023-01-30T05:06:40;10.90;;;7.13;;
5937;SDS011;2994;51.220;4.412;2023-01-30T05:09:06;12.77;;;6.77;;
5937;SDS011;2994;51.220;4.412;2023-01-30T05:11:32;8.53;;;6.60;;
5937;SDS011;2994;51.220;4.412;2023-01-30T05:13:57;11.80;;;7.90;;
5937;SDS011;2994;51.220;4.412;2023-01-30T05:16:23;12.63;;;7.33;;
5937;SDS011;2994;51.220;4.412;2023-01-30T05:18:49;9.33;;;6.60;;
5937;SDS011;2994;51.220;4.412;2023-01-30T05:21:19;7.47;;;6.50;;
5937;SDS011;2994;51.220;4.412;2023-01-30T05:23:46;14.93;;;6.60;;
5937;SDS011;2994;51.220;4.412;2023-01-30T05:26:12;8.20;;;6.47;;
5937;SDS011;2994;51.220;4.412;2023-01-30T05:28:38;11.17;;;8.97;;
5937;SDS011;2994;51.220;4.412;2023-01-30T05:31:05;7.63;;;6.37;;
5937;SDS011;2994;51.220;4.412;2023-01-30T05:33:36;10.27;;;6.67;;
5937;SDS011;2994;51.220;4.412;2023-01-30T05:36:02;10.97;;;6.87;;
5937;SDS011;2994;51.220;4.412;2023-01-30T05:38:28;8.67;;;6.10;;
5937;SDS011;2994;51.220;4.412;2023-01-30T05:41:03;9.53;;;6.20;;
5937;SDS011;2994;51.220;4.412;2023-01-30T05:43:30;8.03;;;5.10;;
5937;SDS011;2994;51.220;4.412;2023-01-30T05:45:57;7.63;;;5.83;;
5937;SDS011;2994;51.220;4.412;2023-01-30T05:48:24;7.67;;;4.97;;
5937;SDS011;2994;51.220;4.412;2023-01-30T05:50:50;9.97;;;5.80;;
5937;SDS011;2994;51.220;4.412;2023-01-30T05:53:16;7.33;;;4.80;;
5937;SDS011;2994;51.220;4.412;2023-01-30T05:55:42;7.60;;;5.50;;
5937;SDS011;2994;51.220;4.412;2023-01-30T05:58:08;9.53;;;6.23;;
5937;SDS011;2994;51.220;4.412;2023-01-30T06:00:34;6.27;;;4.13;;
5937;SDS011;2994;51.220;4.412;2023-01-30T06:03:00;10.00;;;5.37;;
5937;SDS011;2994;51.220;4.412;2023-01-30T06:05:25;7.80;;;4.47;;
5937;SDS011;2994;51.220;4.412;2023-01-30T06:07:51;8.63;;;4.40;;
5937;SDS011;2994;51.220;4.412;2023-01-30T06:10:16;11.50;;;4.40;;
5937;SDS011;2994;51.220;4.412;2023-01-30T06:12:42;5.10;;;3.80;;
5937;SDS011;2994;51.220;4.412;2023-01-30T06:15:07;10.17;;;4.60;;
5937;SDS011;2994;51.220;4.412;2023-01-30T06:17:33;9.80;;;5.63;;
5937;SDS011;2994;51.220;4.412;2023-01-30T06:19:58;9.13;;;4.70;;
5937;SDS011;2994;51.220;4.412;2023-01-30T06:22:24;7.50;;;4.47;;
5937;SDS011;2994;51.220;4.412;2023-01-30T06:24:49;9.83;;;5.80;;
5937;SDS011;2994;51.220;4.412;2023-01-30T06:27:15;7.57;;;4.70;;
5937;SDS011;2994;51.220;4.412;2023-01-30T06:29:40;6.80;;;4.00;;
5937;SDS011;2994;51.220;4.412;2023-01-30T06:32:06;5.40;;;3.00;;
5937;SDS011;2994;51.220;4.412;2023-01-30T06:34:33;7.90;;;4.67;;
5937;SDS011;2994;51.220;4.412;2023-01-30T06:36:58;7.33;;;4.50;;
5937;SDS011;2994;51.220;4.412;2023-01-30T06:39:24;8.10;;;3.53;;
5937;SDS011;2994;51.220;4.412;2023-01-30T06:41:49;6.23;;;3.40;;
5937;SDS011;2994;51.220;4.412;2023-01-30T06:44:16;6.47;;;3.03;;
5937;SDS011;2994;51.220;4.412;2023-01-30T06:46:42;6.13;;;3.40;;
5937;SDS011;2994;51.220;4.412;2023-01-30T06:49:07;13.70;;;4.23;;
5937;SDS011;2994;51.220;4.412;2023-01-30T06:51:32;4.80;;;3.23;;
5937;SDS011;2994;51.220;4.412;2023-01-30T06:53:58;6.63;;;3.90;;
5937;SDS011;2994;51.220;4.412;2023-01-30T06:56:23;6.70;;;3.70;;
5937;SDS011;2994;51.220;4.412;2023-01-30T06:58:49;5.40;;;3.00;;
5937;SDS011;2994;51.220;4.412;2023-01-30T07:01:14;4.63;;;3.30;;
5937;SDS011;2994;51.220;4.412;2023-01-30T07:03:40;13.07;;;3.40;;
5937;SDS011;2994;51.220;4.412;2023-01-30T07:06:05;6.70;;;4.43;;
5937;SDS011;2994;51.220;4.412;2023-01-30T07:08:30;8.83;;;3.30;;
5937;SDS011;2994;51.220;4.412;2023-01-30T07:10:56;4.77;;;2.70;;
5937;SDS011;2994;51.220;4.412;2023-01-30T07:13:21;13.87;;;4.77;;
5937;SDS011;2994;51.220;4.412;2023-01-30T07:15:47;10.50;;;3.77;;
5937;SDS011;2994;51.220;4.412;2023-01-30T07:18:12;8.23;;;3.67;;
5937;SDS011;2994;51.220;4.412;2023-01-30T07:20:38;3.67;;;2.27;;
5937;SDS011;2994;51.220;4.412;2023-01-30T07:23:04;8.60;;;2.80;;
5937;SDS011;2994;51.220;4.412;2023-01-30T07:25:29;5.30;;;2.20;;
5937;SDS011;2994;51.220;4.412;2023-01-30T07:27:56;8.17;;;3.00;;
5937;SDS011;2994;51.220;4.412;2023-01-30T07:30:23;3.93;;;2.80;;
5937;SDS011;2994;51.220;4.412;2023-01-30T07:32:53;7.47;;;3.30;;
5937;SDS011;2994;51.220;4.412;2023-01-30T07:35:21;10.83;;;3.73;;
5937;SDS011;2994;51.220;4.412;2023-01-30T07:37:48;4.93;;;2.97;;
5937;SDS011;2994;51.220;4.412;2023-01-30T07:40:14;9.13;;;3.70;;
5937;SDS011;2994;51.220;4.412;2023-01-30T07:42:40;10.20;;;3.27;;
5937;SDS011;2994;51.220;4.412;2023-01-30T07:45:06;5.67;;;3.00;;
5937;SDS011;2994;51.220;4.412;2023-01-30T07:47:32;6.90;;;3.00;;
5937;SDS011;2994;51.220;4.412;2023-01-30T07:49:58;8.17;;;2.97;;
5937;SDS011;2994;51.220;4.412;2023-01-30T07:52:24;7.40;;;3.60;;
5937;SDS011;2994;51.220;4.412;2023-01-30T07:54:49;6.10;;;3.63;;
5937;SDS011;2994;51.220;4.412;2023-01-30T07:57:15;7.73;;;3.60;;
5937;SDS011;2994;51.220;4.412;2023-01-30T07:59:40;6.97;;;4.03;;
5937;SDS011;2994;51.220;4.412;2023-01-30T08:02:08;6.60;;;3.30;;
5937;SDS011;2994;51.220;4.412;2023-01-30T08:04:34;4.80;;;3.50;;
5937;SDS011;2994;51.220;4.412;2023-01-30T08:06:59;9.80;;;3.40;;
5937;SDS011;2994;51.220;4.412;2023-01-30T08:09:24;7.60;;;3.67;;
5937;SDS011;2994;51.220;4.412;2023-01-30T08:11:50;12.00;;;4.47;;
5937;SDS011;2994;51.220;4.412;2023-01-30T08:14:15;11.53;;;4.47;;
5937;SDS011;2994;51.220;4.412;2023-01-30T08:16:41;6.00;;;3.40;;
5937;SDS011;2994;51.220;4.412;2023-01-30T08:19:06;4.73;;;2.80;;
5937;SDS011;2994;51.220;4.412;2023-01-30T08:21:32;7.53;;;2.83;;
5937;SDS011;2994;51.220;4.412;2023-01-30T08:23:57;7.10;;;3.00;;
5937;SDS011;2994;51.220;4.412;2023-01-30T08:26:23;9.63;;;4.00;;
5937;SDS011;2994;51.220;4.412;2023-01-30T08:28:48;8.07;;;3.27;;
5937;SDS011;2994;51.220;4.412;2023-01-30T08:31:14;10.30;;;4.07;;
5937;SDS011;2994;51.220;4.412;2023-01-30T08:33:40;9.00;;;3.07;;
5937;SDS011;2994;51.220;4.412;2023-01-30T08:36:06;10.47;;;3.57;;
5937;SDS011;2994;51.220;4.412;2023-01-30T08:38:32;7.20;;;3.40;;
5937;SDS011;2994;51.220;4.412;2023-01-30T08:40:58;9.40;;;4.20;;
5937;SDS011;2994;51.220;4.412;2023-01-30T08:43:25;5.93;;;3.60;;
5937;SDS011;2994;51.220;4.412;2023-01-30T08:45:54;10.00;;;3.13;;
5937;SDS011;2994;51.220;4.412;2023-01-30T08:48:21;7.63;;;4.13;;
5937;SDS011;2994;51.220;4.412;2023-01-30T08:50:46;7.30;;;3.00;;
5937;SDS011;2994;51.220;4.412;2023-01-30T08:53:15;8.97;;;3.20;;
5937;SDS011;2994;51.220;4.412;2023-01-30T08:55:42;9.63;;;3.40;;
5937;SDS011;2994;51.220;4.412;2023-01-30T08:58:08;10.90;;;3.80;;
5937;SDS011;2994;51.220;4.412;2023-01-30T09:00:34;7.73;;;3.80;;
5937;SDS011;2994;51.220;4.412;2023-01-30T09:02:59;6.00;;;3.53;;
5937;SDS011;2994;51.220;4.412;2023-01-30T09:05:25;8.50;;;3.50;;
5937;SDS011;2994;51.220;4.412;2023-01-30T09:07:51;9.70;;;3.70;;
5937;SDS011;2994;51.220;4.412;2023-01-30T09:10:17;9.50;;;3.57;;
5937;SDS011;2994;51.220;4.412;2023-01-30T09:12:42;10.50;;;3.30;;
5937;SDS011;2994;51.220;4.412;2023-01-30T09:15:08;9.10;;;3.63;;
5937;SDS011;2994;51.220;4.412;2023-01-30T09:17:34;8.23;;;3.03;;
5937;SDS011;2994;51.220;4.412;2023-01-30T09:20:00;15.47;;;4.17;;
5937;SDS011;2994;51.220;4.412;2023-01-30T09:22:25;8.50;;;3.10;;
5937;SDS011;2994;51.220;4.412;2023-01-30T09:24:51;9.83;;;3.57;;
5937;SDS011;2994;51.220;4.412;2023-01-30T09:27:16;9.43;;;3.97;;
5937;SDS011;2994;51.220;4.412;2023-01-30T09:29:41;10.17;;;3.30;;
5937;SDS011;2994;51.220;4.412;2023-01-30T09:32:07;11.30;;;3.10;;
5937;SDS011;2994;51.220;4.412;2023-01-30T09:34:32;7.70;;;3.57;;
5937;SDS011;2994;51.220;4.412;2023-01-30T09:36:58;9.33;;;3.60;;
5937;SDS011;2994;51.220;4.412;2023-01-30T09:39:24;7.77;;;3.50;;
5937;SDS011;2994;51.220;4.412;2023-01-30T09:45:02;14.73;;;4.50;;
5937;SDS011;2994;51.220;4.412;2023-01-30T09:53:03;11.73;;;3.20;;
5937;SDS011;2994;51.220;4.412;2023-01-30T09:55:36;10.93;;;3.63;;
5937;SDS011;2994;51.220;4.412;2023-01-30T09:58:05;8.53;;;3.03;;
5937;SDS011;2994;51.220;4.412;2023-01-30T10:00:55;6.97;;;3.33;;
5937;SDS011;2994;51.220;4.412;2023-01-30T10:03:35;6.93;;;4.10;;
5937;SDS011;2994;51.220;4.412;2023-01-30T10:06:09;5.60;;;2.67;;
5937;SDS011;2994;51.220;4.412;2023-01-30T10:11:39;10.47;;;3.60;;
5937;SDS011;2994;51.220;4.412;2023-01-30T10:22:35;11.47;;;3.20;;
5937;SDS011;2994;51.220;4.412;2023-01-30T10:27:59;6.07;;;2.93;;
5937;SDS011;2994;51.220;4.412;2023-01-30T10:30:28;11.80;;;4.00;;
5937;SDS011;2994;51.220;4.412;2023-01-30T10:33:01;6.80;;;3.00;;
5937;SDS011;2994;51.220;4.412;2023-01-30T10:36:10;7.80;;;3.07;;
5937;SDS011;2994;51.220;4.412;2023-01-30T10:38:39;10.70;;;3.43;;
5937;SDS011;2994;51.220;4.412;2023-01-30T10:43:43;7.47;;;2.90;;
5937;SDS011;2994;51.220;4.412;2023-01-30T10:46:21;8.03;;;2.63;;
5937;SDS011;2994;51.220;4.412;2023-01-30T10:49:17;8.70;;;3.33;;
5937;SDS011;2994;51.220;4.412;2023-01-30T10:51:54;8.60;;;2.67;;
5937;SDS011;2994;51.220;4.412;2023-01-30T10:54:46;9.10;;;3.10;;
5937;SDS011;2994;51.220;4.412;2023-01-30T10:57:17;4.90;;;2.90;;
5937;SDS011;2994;51.220;4.412;2023-01-30T11:00:01;5.50;;;3.00;;
5937;SDS011;2994;51.220;4.412;2023-01-30T11:02:49;10.07;;;4.30;;
5937;SDS011;2994;51.220;4.412;2023-01-30T11:05:24;9.00;;;3.30;;
5937;SDS011;2994;51.220;4.412;2023-01-30T11:07:53;11.87;;;2.90;;
5937;SDS011;2994;51.220;4.412;2023-01-30T11:10:22;11.80;;;3.20;;
5937;SDS011;2994;51.220;4.412;2023-01-30T11:12:52;7.23;;;3.50;;
5937;SDS011;2994;51.220;4.412;2023-01-30T11:15:22;11.53;;;3.07;;
5937;SDS011;2994;51.220;4.412;2023-01-30T11:17:50;8.90;;;3.23;;
5937;SDS011;2994;51.220;4.412;2023-01-30T11:20:29;8.40;;;3.83;;
5937;SDS011;2994;51.220;4.412;2023-01-30T11:23:05;6.27;;;3.13;;
5937;SDS011;2994;51.220;4.412;2023-01-30T11:25:32;11.77;;;3.70;;
5937;SDS011;2994;51.220;4.412;2023-01-30T11:28:15;6.27;;;3.23;;
5937;SDS011;2994;51.220;4.412;2023-01-30T11:30:52;9.20;;;3.50;;
5937;SDS011;2994;51.220;4.412;2023-01-30T11:33:20;11.03;;;3.77;;
5937;SDS011;2994;51.220;4.412;2023-01-30T11:35:54;8.73;;;3.27;;
5937;SDS011;2994;51.220;4.412;2023-01-30T11:38:23;9.73;;;3.77;;
5937;SDS011;2994;51.220;4.412;2023-01-30T11:43:27;8.27;;;4.20;;
5937;SDS011;2994;51.220;4.412;2023-01-30T11:45:53;14.50;;;3.17;;
5937;SDS011;2994;51.220;4.412;2023-01-30T11:48:19;5.47;;;3.53;;
5937;SDS011;2994;51.220;4.412;2023-01-30T11:50:58;5.97;;;3.10;;
5937;SDS011;2994;51.220;4.412;2023-01-30T11:53:38;11.57;;;3.43;;
5937;SDS011;2994;51.220;4.412;2023-01-30T11:56:14;7.53;;;3.03;;
5937;SDS011;2994;51.220;4.412;2023-01-30T11:58:56;8.37;;;2.77;;
5937;SDS011;2994;51.220;4.412;2023-01-30T12:01:31;5.77;;;2.43;;
5937;SDS011;2994;51.220;4.412;2023-01-30T12:03:58;9.83;;;4.17;;
5937;SDS011;2994;51.220;4.412;2023-01-30T12:06:28;6.63;;;2.80;;
5937;SDS011;2994;51.220;4.412;2023-01-30T12:08:55;7.87;;;3.60;;
5937;SDS011;2994;51.220;4.412;2023-01-30T12:11:39;7.70;;;3.13;;
5937;SDS011;2994;51.220;4.412;2023-01-30T12:17:07;4.10;;;2.80;;
5937;SDS011;2994;51.220;4.412;2023-01-30T12:19:50;7.40;;;3.30;;
5937;SDS011;2994;51.220;4.412;2023-01-30T12:25:47;8.23;;;3.40;;
5937;SDS011;2994;51.220;4.412;2023-01-30T12:28:28;7.63;;;3.90;;
5937;SDS011;2994;51.220;4.412;2023-01-30T12:31:42;14.40;;;3.67;;
5937;SDS011;2994;51.220;4.412;2023-01-30T12:33:50;9.23;;;4.27;;
5937;SDS011;2994;51.220;4.412;2023-01-30T12:45:05;8.10;;;2.87;;
5937;SDS011;2994;51.220;4.412;2023-01-30T12:56:20;7.10;;;3.50;;
5937;SDS011;2994;51.220;4.412;2023-01-30T13:04:35;7.33;;;2.93;;
5937;SDS011;2994;51.220;4.412;2023-01-30T13:12:40;7.83;;;3.60;;
5937;SDS011;2994;51.220;4.412;2023-01-30T13:15:37;8.23;;;4.17;;
5937;SDS011;2994;51.220;4.412;2023-01-30T13:26:17;11.63;;;3.30;;
5937;SDS011;2994;51.220;4.412;2023-01-30T13:28:50;13.70;;;3.17;;
5937;SDS011;2994;51.220;4.412;2023-01-30T13:31:21;9.30;;;4.80;;
5937;SDS011;2994;51.220;4.412;2023-01-30T13:33:50;9.90;;;3.10;;
5937;SDS011;2994;51.220;4.412;2023-01-30T13:36:27;12.93;;;4.93;;
5937;SDS011;2994;51.220;4.412;2023-01-30T13:41:54;7.63;;;3.30;;
5937;SDS011;2994;51.220;4.412;2023-01-30T13:44:30;4.30;;;3.30;;
5937;SDS011;2994;51.220;4.412;2023-01-30T13:47:03;13.07;;;4.90;;
5937;SDS011;2994;51.220;4.412;2023-01-30T13:49:45;8.17;;;3.10;;
5937;SDS011;2994;51.220;4.412;2023-01-30T13:58:12;12.87;;;3.67;;
5937;SDS011;2994;51.220;4.412;2023-01-30T14:00:59;14.10;;;3.57;;
5937;SDS011;2994;51.220;4.412;2023-01-30T14:03:28;15.40;;;3.47;;
5937;SDS011;2994;51.220;4.412;2023-01-30T14:05:58;11.23;;;3.73;;
5937;SDS011;2994;51.220;4.412;2023-01-30T14:11:04;4.97;;;2.60;;
5937;SDS011;2994;51.220;4.412;2023-01-30T14:13:55;9.10;;;3.80;;
5937;SDS011;2994;51.220;4.412;2023-01-30T14:16:45;10.40;;;3.40;;
5937;SDS011;2994;51.220;4.412;2023-01-30T14:19:30;6.70;;;2.40;;
5937;SDS011;2994;51.220;4.412;2023-01-30T14:21:59;12.13;;;3.53;;
5937;SDS011;2994;51.220;4.412;2023-01-30T14:24:27;11.00;;;3.97;;
5937;SDS011;2994;51.220;4.412;2023-01-30T14:34:38;9.37;;;3.03;;
5937;SDS011;2994;51.220;4.412;2023-01-30T14:37:24;9.57;;;3.17;;
5937;SDS011;2994;51.220;4.412;2023-01-30T14:39:53;12.07;;;3.60;;
5937;SDS011;2994;51.220;4.412;2023-01-30T14:44:55;6.83;;;3.73;;
5937;SDS011;2994;51.220;4.412;2023-01-30T14:47:29;10.23;;;3.50;;
5937;SDS011;2994;51.220;4.412;2023-01-30T14:49:56;10.00;;;3.20;;
5937;SDS011;2994;51.220;4.412;2023-01-30T14:52:35;8.47;;;4.73;;
5937;SDS011;2994;51.220;4.412;2023-01-30T14:55:03;6.20;;;2.97;;
5937;SDS011;2994;51.220;4.412;2023-01-30T14:57:30;7.30;;;2.83;;
5937;SDS011;2994;51.220;4.412;2023-01-30T14:59:59;7.23;;;2.90;;
5937;SDS011;2994;51.220;4.412;2023-01-30T15:02:30;8.70;;;3.03;;
5937;SDS011;2994;51.220;4.412;2023-01-30T15:05:09;9.73;;;3.47;;
5937;SDS011;2994;51.220;4.412;2023-01-30T15:07:48;9.50;;;3.43;;
5937;SDS011;2994;51.220;4.412;2023-01-30T15:10:25;6.10;;;3.43;;
5937;SDS011;2994;51.220;4.412;2023-01-30T15:26:57;10.53;;;3.13;;
5937;SDS011;2994;51.220;4.412;2023-01-30T15:32:18;15.13;;;4.60;;
5937;SDS011;2994;51.220;4.412;2023-01-30T15:34:47;11.90;;;3.63;;
5937;SDS011;2994;51.220;4.412;2023-01-30T15:37:40;8.00;;;3.67;;
5937;SDS011;2994;51.220;4.412;2023-01-30T15:40:18;11.30;;;3.40;;
5937;SDS011;2994;51.220;4.412;2023-01-30T15:50:37;7.07;;;3.47;;
5937;SDS011;2994;51.220;4.412;2023-01-30T15:53:02;14.50;;;3.43;;
5937;SDS011;2994;51.220;4.412;2023-01-30T15:55:29;8.60;;;2.90;;
5937;SDS011;2994;51.220;4.412;2023-01-30T15:58:19;7.03;;;3.20;;
5937;SDS011;2994;51.220;4.412;2023-01-30T16:00:51;6.00;;;2.60;;
5937;SDS011;2994;51.220;4.412;2023-01-30T16:03:23;5.10;;;2.60;;
5937;SDS011;2994;51.220;4.412;2023-01-30T16:05:53;7.07;;;2.70;;
5937;SDS011;2994;51.220;4.412;2023-01-30T16:08:21;7.10;;;2.83;;
5937;SDS011;2994;51.220;4.412;2023-01-30T16:10:48;7.73;;;3.50;;
5937;SDS011;2994;51.220;4.412;2023-01-30T16:13:15;9.30;;;3.00;;
5937;SDS011;2994;51.220;4.412;2023-01-30T16:18:37;7.87;;;3.20;;
5937;SDS011;2994;51.220;4.412;2023-01-30T16:21:31;9.23;;;3.57;;
5937;SDS011;2994;51.220;4.412;2023-01-30T16:24:05;13.63;;;3.20;;
5937;SDS011;2994;51.220;4.412;2023-01-30T16:26:40;8.93;;;3.03;;
5937;SDS011;2994;51.220;4.412;2023-01-30T16:29:12;7.70;;;3.17;;
5937;SDS011;2994;51.220;4.412;2023-01-30T16:31:39;9.07;;;3.47;;
5937;SDS011;2994;51.220;4.412;2023-01-30T16:34:26;6.17;;;2.83;;
5937;SDS011;2994;51.220;4.412;2023-01-30T16:36:50;6.77;;;2.30;;
5937;SDS011;2994;51.220;4.412;2023-01-30T16:39:29;8.83;;;4.03;;
5937;SDS011;2994;51.220;4.412;2023-01-30T16:41:57;9.70;;;3.67;;
5937;SDS011;2994;51.220;4.412;2023-01-30T16:44:24;7.80;;;3.60;;
5937;SDS011;2994;51.220;4.412;2023-01-30T16:49:24;7.83;;;2.70;;
5937;SDS011;2994;51.220;4.412;2023-01-30T16:54:47;9.30;;;3.57;;
5937;SDS011;2994;51.220;4.412;2023-01-30T16:57:31;10.90;;;3.50;;
5937;SDS011;2994;51.220;4.412;2023-01-30T17:02:56;5.43;;;2.60;;
5937;SDS011;2994;51.220;4.412;2023-01-30T17:05:27;7.87;;;3.50;;
5937;SDS011;2994;51.220;4.412;2023-01-30T17:07:55;9.00;;;3.43;;
5937;SDS011;2994;51.220;4.412;2023-01-30T17:13:50;6.77;;;2.63;;
5937;SDS011;2994;51.220;4.412;2023-01-30T17:18:50;6.50;;;3.20;;
5937;SDS011;2994;51.220;4.412;2023-01-30T17:21:17;7.20;;;3.00;;
5937;SDS011;2994;51.220;4.412;2023-01-30T17:23:48;9.20;;;3.37;;
5937;SDS011;2994;51.220;4.412;2023-01-30T17:26:17;5.37;;;3.60;;
5937;SDS011;2994;51.220;4.412;2023-01-30T17:28:42;8.60;;;2.87;;
5937;SDS011;2994;51.220;4.412;2023-01-30T17:31:11;7.60;;;2.80;;
5937;SDS011;2994;51.220;4.412;2023-01-30T17:33:38;10.10;;;3.10;;
5937;SDS011;2994;51.220;4.412;2023-01-30T17:36:04;7.97;;;3.63;;
5937;SDS011;2994;51.220;4.412;2023-01-30T17:38:35;9.27;;;3.40;;
5937;SDS011;2994;51.220;4.412;2023-01-30T17:41:01;5.60;;;3.60;;
5937;SDS011;2994;51.220;4.412;2023-01-30T17:43:27;15.90;;;3.90;;
5937;SDS011;2994;51.220;4.412;2023-01-30T17:45:53;13.10;;;4.47;;
5937;SDS011;2994;51.220;4.412;2023-01-30T17:48:19;10.63;;;3.77;;
5937;SDS011;2994;51.220;4.412;2023-01-30T17:50:44;8.67;;;4.40;;
5937;SDS011;2994;51.220;4.412;2023-01-30T17:53:10;7.20;;;3.67;;
5937;SDS011;2994;51.220;4.412;2023-01-30T17:55:35;11.20;;;4.00;;
5937;SDS011;2994;51.220;4.412;2023-01-30T17:58:01;10.23;;;3.80;;
5937;SDS011;2994;51.220;4.412;2023-01-30T18:00:26;11.53;;;4.37;;
5937;SDS011;2994;51.220;4.412;2023-01-30T18:02:52;12.23;;;4.27;;
5937;SDS011;2994;51.220;4.412;2023-01-30T18:05:18;8.40;;;4.03;;
5937;SDS011;2994;51.220;4.412;2023-01-30T18:07:45;8.53;;;3.40;;
5937;SDS011;2994;51.220;4.412;2023-01-30T18:10:14;11.07;;;4.30;;